sensor_id;sensor_type;location;lat;lon;timestamp;pressure;altitude;pressure_sealevel;temperature;humidity
60897;BME280;46749;32.932;-117.130;2023-05-01T00:01:37;100901.91;;;17.71;52.86
60897;BME280;46749;32.932;-117.130;2023-05-01T00:04:03;100877.44;;;17.75;52.69
60897;BME280;46749;32.932;-117.130;2023-05-01T00:06:29;100887.06;;;17.78;52.61
60897;BME280;46749;32.932;-117.130;2023-05-01T00:08:58;100887.13;;;17.81;52.76
60897;BME280;46749;32.932;-117.130;2023-05-01T00:11:24;100882.75;;;17.83;52.92
60897;BME280;46749;32.932;-117.130;2023-05-01T00:13:50;100879.28;;;17.86;53.05
60897;BME280;46749;32.932;-117.130;2023-05-01T00:16:18;100881.03;;;17.88;53.12
60897;BME280;46749;32.932;-117.130;2023-05-01T00:18:45;100879.28;;;17.89;52.86
60897;BME280;46749;32.932;-117.130;2023-05-01T00:21:11;100883.66;;;17.85;52.64
60897;BME280;46749;32.932;-117.130;2023-05-01T00:23:37;100885.38;;;17.80;52.84
60897;BME280;46749;32.932;-117.130;2023-05-01T00:26:04;100883.56;;;17.77;52.89
60897;BME280;46749;32.932;-117.130;2023-05-01T00:28:32;100884.44;;;17.76;53.12
60897;BME280;46749;32.932;-117.130;2023-05-01T00:30:58;100878.28;;;17.73;52.97
60897;BME280;46749;32.932;-117.130;2023-05-01T00:33:24;100876.53;;;17.73;53.30
60897;BME280;46749;32.932;-117.130;2023-05-01T00:35:50;100871.25;;;17.72;53.32
60897;BME280;46749;32.932;-117.130;2023-05-01T00:38:18;100864.22;;;17.71;53.27
60897;BME280;46749;32.932;-117.130;2023-05-01T00:40:45;100856.31;;;17.69;53.55
60897;BME280;46749;32.932;-117.130;2023-05-01T00:43:12;100869.44;;;17.68;53.64
60897;BME280;46749;32.932;-117.130;2023-05-01T00:45:43;100867.69;;;17.67;53.62
60897;BME280;46749;32.932;-117.130;2023-05-01T00:48:11;100860.66;;;17.66;53.58
60897;BME280;46749;32.932;-117.130;2023-05-01T00:50:38;100866.81;;;17.66;53.64
60897;BME280;46749;32.932;-117.130;2023-05-01T00:53:04;100866.78;;;17.65;53.75
60897;BME280;46749;32.932;-117.130;2023-05-01T00:55:30;100862.41;;;17.65;53.88
60897;BME280;46749;32.932;-117.130;2023-05-01T00:57:59;100855.41;;;17.66;53.94
60897;BME280;46749;32.932;-117.130;2023-05-01T01:00:28;100854.53;;;17.65;53.96
60897;BME280;46749;32.932;-117.130;2023-05-01T01:02:54;100860.66;;;17.66;53.81
60897;BME280;46749;32.932;-117.130;2023-05-01T01:05:23;100856.31;;;17.66;54.00
60897;BME280;46749;32.932;-117.130;2023-05-01T01:13:33;100853.63;;;17.65;54.07
60897;BME280;46749;32.932;-117.130;2023-05-01T01:16:14;100855.41;;;17.66;53.98
60897;BME280;46749;32.932;-117.130;2023-05-01T01:21:37;100856.28;;;17.65;54.01
60897;BME280;46749;32.932;-117.130;2023-05-01T01:32:42;100847.50;;;17.63;53.93
60897;BME280;46749;32.932;-117.130;2023-05-01T01:35:19;100840.50;;;17.65;53.92
60897;BME280;46749;32.932;-117.130;2023-05-01T01:40:49;100829.13;;;17.63;54.02
60897;BME280;46749;32.932;-117.130;2023-05-01T01:43:19;100839.63;;;17.63;54.17
60897;BME280;46749;32.932;-117.130;2023-05-01T01:45:51;100841.38;;;17.62;54.16
60897;BME280;46749;32.932;-117.130;2023-05-01T01:48:22;100843.13;;;17.63;54.10
60897;BME280;46749;32.932;-117.130;2023-05-01T01:50:52;100836.13;;;17.64;54.13
60897;BME280;46749;32.932;-117.130;2023-05-01T01:53:21;100840.50;;;17.63;54.01
60897;BME280;46749;32.932;-117.130;2023-05-01T01:55:49;100839.63;;;17.63;53.83
60897;BME280;46749;32.932;-117.130;2023-05-01T01:58:17;100836.13;;;17.61;54.13
60897;BME280;46749;32.932;-117.130;2023-05-01T02:00:52;100828.19;;;17.59;54.06
60897;BME280;46749;32.932;-117.130;2023-05-01T02:03:21;100835.19;;;17.59;53.99
60897;BME280;46749;32.932;-117.130;2023-05-01T02:05:48;100832.56;;;17.59;54.18
60897;BME280;46749;32.932;-117.130;2023-05-01T02:08:16;100830.81;;;17.58;53.98
60897;BME280;46749;32.932;-117.130;2023-05-01T02:10:44;100829.06;;;17.57;54.06
60897;BME280;46749;32.932;-117.130;2023-05-01T02:13:13;100827.31;;;17.59;54.17
60897;BME280;46749;32.932;-117.130;2023-05-01T02:15:40;100823.81;;;17.58;54.17
60897;BME280;46749;32.932;-117.130;2023-05-01T02:18:07;100819.44;;;17.59;54.04
60897;BME280;46749;32.932;-117.130;2023-05-01T02:20:36;100830.81;;;17.58;53.97
60897;BME280;46749;32.932;-117.130;2023-05-01T02:23:03;100828.19;;;17.56;53.97
60897;BME280;46749;32.932;-117.130;2023-05-01T02:25:33;100822.94;;;17.56;54.14
60897;BME280;46749;32.932;-117.130;2023-05-01T02:28:08;100821.19;;;17.55;53.96
60897;BME280;46749;32.932;-117.130;2023-05-01T02:30:37;100805.41;;;17.55;53.96
60897;BME280;46749;32.932;-117.130;2023-05-01T02:33:06;100809.75;;;17.53;53.94
60897;BME280;46749;32.932;-117.130;2023-05-01T02:35:43;100802.75;;;17.52;54.21
60897;BME280;46749;32.932;-117.130;2023-05-01T02:38:12;100820.25;;;17.51;54.00
60897;BME280;46749;32.932;-117.130;2023-05-01T02:40:44;100809.75;;;17.51;54.06
60897;BME280;46749;32.932;-117.130;2023-05-01T02:43:14;100808.88;;;17.52;54.12
60897;BME280;46749;32.932;-117.130;2023-05-01T02:45:42;100813.25;;;17.53;54.20
60897;BME280;46749;32.932;-117.130;2023-05-01T02:48:13;100816.75;;;17.52;54.04
60897;BME280;46749;32.932;-117.130;2023-05-01T02:50:43;100794.00;;;17.51;53.97
60897;BME280;46749;32.932;-117.130;2023-05-01T02:53:12;100799.25;;;17.51;54.11
60897;BME280;46749;32.932;-117.130;2023-05-01T02:55:41;100806.25;;;17.52;54.15
60897;BME280;46749;32.932;-117.130;2023-05-01T02:58:07;100799.25;;;17.51;54.08
60897;BME280;46749;32.932;-117.130;2023-05-01T03:00:34;100805.38;;;17.50;54.07
60897;BME280;46749;32.932;-117.130;2023-05-01T03:03:00;100801.00;;;17.49;54.36
60897;BME280;46749;32.932;-117.130;2023-05-01T03:05:26;100801.84;;;17.48;54.34
60897;BME280;46749;32.932;-117.130;2023-05-01T03:07:54;100809.69;;;17.47;54.39
60897;BME280;46749;32.932;-117.130;2023-05-01T03:10:20;100802.69;;;17.46;54.34
60897;BME280;46749;32.932;-117.130;2023-05-01T03:12:47;100794.81;;;17.44;54.19
60897;BME280;46749;32.932;-117.130;2023-05-01T03:15:13;100807.94;;;17.44;54.30
60897;BME280;46749;32.932;-117.130;2023-05-01T03:17:39;100804.44;;;17.45;54.13
60897;BME280;46749;32.932;-117.130;2023-05-01T03:20:06;100804.44;;;17.45;54.32
60897;BME280;46749;32.932;-117.130;2023-05-01T03:22:34;100810.56;;;17.46;54.37
60897;BME280;46749;32.932;-117.130;2023-05-01T03:25:00;100806.19;;;17.45;54.13
60897;BME280;46749;32.932;-117.130;2023-05-01T03:27:27;100798.31;;;17.43;54.29
60897;BME280;46749;32.932;-117.130;2023-05-01T03:29:53;100807.88;;;17.40;54.42
60897;BME280;46749;32.932;-117.130;2023-05-01T03:32:19;100808.75;;;17.40;54.43
60897;BME280;46749;32.932;-117.130;2023-05-01T03:34:45;100813.13;;;17.38;54.31
60897;BME280;46749;32.932;-117.130;2023-05-01T03:37:12;100809.63;;;17.39;54.38
60897;BME280;46749;32.932;-117.130;2023-05-01T03:39:40;100809.63;;;17.39;54.32
60897;BME280;46749;32.932;-117.130;2023-05-01T03:42:06;100813.13;;;17.40;54.30
60897;BME280;46749;32.932;-117.130;2023-05-01T03:47:17;100814.88;;;17.39;54.39
60897;BME280;46749;32.932;-117.130;2023-05-01T03:49:44;100813.13;;;17.38;54.46
60897;BME280;46749;32.932;-117.130;2023-05-01T03:52:10;100811.38;;;17.37;54.45
60897;BME280;46749;32.932;-117.130;2023-05-01T03:54:37;100824.50;;;17.36;54.55
60897;BME280;46749;32.932;-117.130;2023-05-01T03:57:04;100818.38;;;17.35;54.45
60897;BME280;46749;32.932;-117.130;2023-05-01T03:59:30;100821.00;;;17.37;54.69
60897;BME280;46749;32.932;-117.130;2023-05-01T04:01:56;100824.50;;;17.36;54.52
60897;BME280;46749;32.932;-117.130;2023-05-01T04:04:22;100826.25;;;17.37;54.48
60897;BME280;46749;32.932;-117.130;2023-05-01T04:06:49;100837.63;;;17.37;54.36
60897;BME280;46749;32.932;-117.130;2023-05-01T04:09:15;100818.31;;;17.34;54.69
60897;BME280;46749;32.932;-117.130;2023-05-01T04:11:41;100843.69;;;17.33;54.74
60897;BME280;46749;32.932;-117.130;2023-05-01T04:14:07;100835.81;;;17.33;54.61
60897;BME280;46749;32.932;-117.130;2023-05-01T04:16:34;100834.06;;;17.34;54.53
60897;BME280;46749;32.932;-117.130;2023-05-01T04:19:00;100842.81;;;17.34;54.60
60897;BME280;46749;32.932;-117.130;2023-05-01T04:21:26;100842.81;;;17.34;54.69
60897;BME280;46749;32.932;-117.130;2023-05-01T04:23:53;100848.06;;;17.34;54.55
60897;BME280;46749;32.932;-117.130;2023-05-01T04:26:19;100849.81;;;17.32;52.52
60897;BME280;46749;32.932;-117.130;2023-05-01T04:28:45;100854.97;;;17.23;52.64
60897;BME280;46749;32.932;-117.130;2023-05-01T04:31:11;100859.31;;;17.21;52.97
60897;BME280;46749;32.932;-117.130;2023-05-01T04:33:38;100860.19;;;17.20;53.30
60897;BME280;46749;32.932;-117.130;2023-05-01T04:36:04;100850.56;;;17.19;53.30
60897;BME280;46749;32.932;-117.130;2023-05-01T04:38:31;100860.19;;;17.20;53.51
60897;BME280;46749;32.932;-117.130;2023-05-01T04:40:58;100863.66;;;17.19;53.71
60897;BME280;46749;32.932;-117.130;2023-05-01T04:43:24;100856.66;;;17.18;53.86
60897;BME280;46749;32.932;-117.130;2023-05-01T04:45:50;100868.03;;;17.17;54.11
60897;BME280;46749;32.932;-117.130;2023-05-01T04:48:17;100853.13;;;17.16;53.99
60897;BME280;46749;32.932;-117.130;2023-05-01T04:50:43;100852.25;;;17.15;54.08
60897;BME280;46749;32.932;-117.130;2023-05-01T04:53:09;100855.75;;;17.16;53.96
60897;BME280;46749;32.932;-117.130;2023-05-01T04:55:35;100854.91;;;17.17;54.11
60897;BME280;46749;32.932;-117.130;2023-05-01T04:58:01;100860.16;;;17.17;54.12
60897;BME280;46749;32.932;-117.130;2023-05-01T05:00:30;100854.03;;;17.18;54.25
60897;BME280;46749;32.932;-117.130;2023-05-01T05:02:57;100847.03;;;17.17;54.09
60897;BME280;46749;32.932;-117.130;2023-05-01T05:05:23;100849.66;;;17.17;54.25
60897;BME280;46749;32.932;-117.130;2023-05-01T05:07:49;100848.78;;;17.18;54.20
60897;BME280;46749;32.932;-117.130;2023-05-01T05:10:15;100846.16;;;17.18;54.10
60897;BME280;46749;32.932;-117.130;2023-05-01T05:12:42;100853.13;;;17.16;54.22
60897;BME280;46749;32.932;-117.130;2023-05-01T05:15:08;100850.50;;;17.16;54.25
60897;BME280;46749;32.932;-117.130;2023-05-01T05:17:35;100853.13;;;17.16;54.19
60897;BME280;46749;32.932;-117.130;2023-05-01T05:20:01;100850.50;;;17.16;54.37
60897;BME280;46749;32.932;-117.130;2023-05-01T05:22:28;100858.38;;;17.16;54.20
60897;BME280;46749;32.932;-117.130;2023-05-01T05:24:55;100853.13;;;17.16;54.19
60897;BME280;46749;32.932;-117.130;2023-05-01T05:27:24;100859.28;;;17.18;54.32
60897;BME280;46749;32.932;-117.130;2023-05-01T05:29:51;100858.34;;;17.14;54.32
60897;BME280;46749;32.932;-117.130;2023-05-01T05:32:17;100862.75;;;17.15;54.27
60897;BME280;46749;32.932;-117.130;2023-05-01T05:34:43;100854.84;;;17.14;54.28
60897;BME280;46749;32.932;-117.130;2023-05-01T05:37:10;100854.84;;;17.14;54.32
60897;BME280;46749;32.932;-117.130;2023-05-01T05:39:36;100860.09;;;17.12;54.38
60897;BME280;46749;32.932;-117.130;2023-05-01T05:42:02;100846.97;;;17.12;54.30
60897;BME280;46749;32.932;-117.130;2023-05-01T05:44:29;100846.09;;;17.10;54.28
60897;BME280;46749;32.932;-117.130;2023-05-01T05:46:56;100849.53;;;17.09;54.38
60897;BME280;46749;32.932;-117.130;2023-05-01T05:49:22;100839.91;;;17.08;54.37
60897;BME280;46749;32.932;-117.130;2023-05-01T05:51:48;100850.41;;;17.07;54.65
60897;BME280;46749;32.932;-117.130;2023-05-01T05:54:15;100846.91;;;17.06;54.52
60897;BME280;46749;32.932;-117.130;2023-05-01T05:56:41;100846.03;;;17.06;54.53
60897;BME280;46749;32.932;-117.130;2023-05-01T05:59:07;100825.03;;;17.06;54.48
60897;BME280;46749;32.932;-117.130;2023-05-01T06:01:33;100821.53;;;17.07;54.40
60897;BME280;46749;32.932;-117.130;2023-05-01T06:04:02;100829.41;;;17.07;54.49
60897;BME280;46749;32.932;-117.130;2023-05-01T06:06:28;100827.66;;;17.06;54.35
60897;BME280;46749;32.932;-117.130;2023-05-01T06:08:54;100822.41;;;17.04;54.49
60897;BME280;46749;32.932;-117.130;2023-05-01T06:11:20;100828.53;;;17.05;54.47
60897;BME280;46749;32.932;-117.130;2023-05-01T06:13:47;100825.91;;;17.05;54.56
60897;BME280;46749;32.932;-117.130;2023-05-01T06:16:13;100819.78;;;17.06;54.53
60897;BME280;46749;32.932;-117.130;2023-05-01T06:18:40;100819.78;;;17.06;54.74
60897;BME280;46749;32.932;-117.130;2023-05-01T06:21:06;100828.53;;;17.05;54.62
60897;BME280;46749;32.932;-117.130;2023-05-01T06:23:32;100824.97;;;17.03;54.52
60897;BME280;46749;32.932;-117.130;2023-05-01T06:25:59;100820.59;;;17.03;54.58
60897;BME280;46749;32.932;-117.130;2023-05-01T06:28:25;100815.34;;;17.02;54.61
60897;BME280;46749;32.932;-117.130;2023-05-01T06:30:51;100821.47;;;17.01;54.84
60897;BME280;46749;32.932;-117.130;2023-05-01T06:33:17;100820.59;;;17.00;54.67
60897;BME280;46749;32.932;-117.130;2023-05-01T06:35:44;100816.22;;;16.99;54.60
60897;BME280;46749;32.932;-117.130;2023-05-01T06:38:10;100807.47;;;16.98;54.58
60897;BME280;46749;32.932;-117.130;2023-05-01T06:40:37;100810.03;;;16.97;54.70
60897;BME280;46749;32.932;-117.130;2023-05-01T06:43:03;100804.84;;;16.98;54.72
60897;BME280;46749;32.932;-117.130;2023-05-01T06:45:30;100806.59;;;16.98;54.56
60897;BME280;46749;32.932;-117.130;2023-05-01T06:47:56;100810.97;;;16.97;54.63
60897;BME280;46749;32.932;-117.130;2023-05-01T06:50:22;100805.72;;;16.97;54.59
60897;BME280;46749;32.932;-117.130;2023-05-01T06:52:49;100820.53;;;16.97;54.57
60897;BME280;46749;32.932;-117.130;2023-05-01T06:55:15;100813.56;;;16.97;54.34
60897;BME280;46749;32.932;-117.130;2023-05-01T06:57:41;100803.09;;;16.97;54.68
60897;BME280;46749;32.932;-117.130;2023-05-01T07:00:08;100799.53;;;16.97;54.64
60897;BME280;46749;32.932;-117.130;2023-05-01T07:02:35;100811.78;;;16.96;54.62
60897;BME280;46749;32.932;-117.130;2023-05-01T07:05:02;100805.66;;;16.96;54.64
60897;BME280;46749;32.932;-117.130;2023-05-01T07:07:30;100803.91;;;16.96;54.67
60897;BME280;46749;32.932;-117.130;2023-05-01T07:09:56;100799.53;;;16.95;54.57
60897;BME280;46749;32.932;-117.130;2023-05-01T07:12:23;100801.28;;;16.95;54.55
60897;BME280;46749;32.932;-117.130;2023-05-01T07:14:49;100797.78;;;16.96;54.64
60897;BME280;46749;32.932;-117.130;2023-05-01T07:17:15;100803.03;;;16.96;54.56
60897;BME280;46749;32.932;-117.130;2023-05-01T07:19:41;100804.78;;;16.95;54.62
60897;BME280;46749;32.932;-117.130;2023-05-01T07:22:07;100803.03;;;16.96;54.58
60897;BME280;46749;32.932;-117.130;2023-05-01T07:24:33;100797.78;;;16.96;54.55
60897;BME280;46749;32.932;-117.130;2023-05-01T07:27:00;100791.66;;;16.94;54.63
60897;BME280;46749;32.932;-117.130;2023-05-01T07:29:26;100795.16;;;16.93;54.65
60897;BME280;46749;32.932;-117.130;2023-05-01T07:31:52;100789.91;;;16.91;54.75
60897;BME280;46749;32.932;-117.130;2023-05-01T07:34:19;100787.28;;;16.91;54.74
60897;BME280;46749;32.932;-117.130;2023-05-01T07:36:45;100787.22;;;16.90;54.67
60897;BME280;46749;32.932;-117.130;2023-05-01T07:39:11;100787.22;;;16.90;54.73
60897;BME280;46749;32.932;-117.130;2023-05-01T07:41:39;100785.47;;;16.89;54.63
60897;BME280;46749;32.932;-117.130;2023-05-01T07:44:05;100787.22;;;16.90;54.63
60897;BME280;46749;32.932;-117.130;2023-05-01T07:46:32;100781.09;;;16.89;54.68
60897;BME280;46749;32.932;-117.130;2023-05-01T07:48:59;100783.72;;;16.89;54.54
60897;BME280;46749;32.932;-117.130;2023-05-01T07:51:26;100782.84;;;16.87;54.57
60897;BME280;46749;32.932;-117.130;2023-05-01T07:53:52;100778.47;;;16.88;54.67
60897;BME280;46749;32.932;-117.130;2023-05-01T07:56:18;100773.22;;;16.86;54.64
60897;BME280;46749;32.932;-117.130;2023-05-01T07:58:44;100785.44;;;16.86;54.64
60897;BME280;46749;32.932;-117.130;2023-05-01T08:01:10;100779.31;;;16.85;54.67
60897;BME280;46749;32.932;-117.130;2023-05-01T08:03:37;100780.16;;;16.83;54.62
60897;BME280;46749;32.932;-117.130;2023-05-01T08:06:04;100774.91;;;16.83;54.88
60897;BME280;46749;32.932;-117.130;2023-05-01T08:08:30;100773.16;;;16.83;54.76
60897;BME280;46749;32.932;-117.130;2023-05-01T08:10:56;100766.16;;;16.82;54.80
60897;BME280;46749;32.932;-117.130;2023-05-01T08:13:22;100776.66;;;16.82;54.71
60897;BME280;46749;32.932;-117.130;2023-05-01T08:15:49;100762.66;;;16.82;54.64
60897;BME280;46749;32.932;-117.130;2023-05-01T08:18:15;100767.91;;;16.82;54.81
60897;BME280;46749;32.932;-117.130;2023-05-01T08:20:48;100753.03;;;16.81;54.81
60897;BME280;46749;32.932;-117.130;2023-05-01T08:23:17;100762.66;;;16.80;54.62
60897;BME280;46749;32.932;-117.130;2023-05-01T08:25:44;100744.28;;;16.80;54.58
60897;BME280;46749;32.932;-117.130;2023-05-01T08:28:16;100740.75;;;16.78;54.94
60897;BME280;46749;32.932;-117.130;2023-05-01T08:30:43;100731.13;;;16.77;54.85
60897;BME280;46749;32.932;-117.130;2023-05-01T08:33:09;100737.25;;;16.76;54.83
60897;BME280;46749;32.932;-117.130;2023-05-01T08:35:35;100735.47;;;16.75;54.79
60897;BME280;46749;32.932;-117.130;2023-05-01T08:38:02;100736.34;;;16.76;54.90
60897;BME280;46749;32.932;-117.130;2023-05-01T08:40:31;100718.88;;;16.75;54.87
60897;BME280;46749;32.932;-117.130;2023-05-01T08:43:01;100726.75;;;16.76;54.83
60897;BME280;46749;32.932;-117.130;2023-05-01T08:45:28;100722.38;;;16.75;54.82
60897;BME280;46749;32.932;-117.130;2023-05-01T08:48:04;100717.13;;;16.75;54.70
60897;BME280;46749;32.932;-117.130;2023-05-01T08:50:32;100716.25;;;16.75;54.82
60897;BME280;46749;32.932;-117.130;2023-05-01T08:53:00;100711.88;;;16.74;54.75
60897;BME280;46749;32.932;-117.130;2023-05-01T08:55:29;100716.25;;;16.73;54.68
60897;BME280;46749;32.932;-117.130;2023-05-01T08:57:57;100708.31;;;16.71;54.78
60897;BME280;46749;32.932;-117.130;2023-05-01T09:00:24;100708.31;;;16.70;54.86
60897;BME280;46749;32.932;-117.130;2023-05-01T09:02:51;100704.78;;;16.69;54.84
60897;BME280;46749;32.932;-117.130;2023-05-01T09:05:19;100707.41;;;16.69;54.99
60897;BME280;46749;32.932;-117.130;2023-05-01T09:07:46;100700.41;;;16.67;55.07
60897;BME280;46749;32.932;-117.130;2023-05-01T09:10:16;100692.53;;;16.67;54.83
60897;BME280;46749;32.932;-117.130;2023-05-01T09:12:45;100693.41;;;16.69;54.97
60897;BME280;46749;32.932;-117.130;2023-05-01T09:15:12;100694.31;;;16.69;54.75
60897;BME280;46749;32.932;-117.130;2023-05-01T09:17:39;100700.44;;;16.70;54.94
60897;BME280;46749;32.932;-117.130;2023-05-01T09:20:05;100689.97;;;16.70;54.94
60897;BME280;46749;32.932;-117.130;2023-05-01T09:22:33;100694.28;;;16.68;54.94
60897;BME280;46749;32.932;-117.130;2023-05-01T09:25:00;100677.69;;;16.67;54.96
60897;BME280;46749;32.932;-117.130;2023-05-01T09:27:27;100677.66;;;16.66;54.86
60897;BME280;46749;32.932;-117.130;2023-05-01T09:29:53;100682.88;;;16.64;54.97
60897;BME280;46749;32.932;-117.130;2023-05-01T09:32:23;100681.13;;;16.65;54.99
60897;BME280;46749;32.932;-117.130;2023-05-01T09:34:53;100673.25;;;16.63;54.84
60897;BME280;46749;32.932;-117.130;2023-05-01T09:40:09;100674.13;;;16.64;54.93
60897;BME280;46749;32.932;-117.130;2023-05-01T09:42:38;100679.38;;;16.64;54.97
60897;BME280;46749;32.932;-117.130;2023-05-01T09:45:11;100680.25;;;16.64;54.77
60897;BME280;46749;32.932;-117.130;2023-05-01T09:47:41;100674.13;;;16.64;54.84
60897;BME280;46749;32.932;-117.130;2023-05-01T09:50:09;100673.25;;;16.65;54.95
60897;BME280;46749;32.932;-117.130;2023-05-01T09:52:36;100666.25;;;16.64;55.03
60897;BME280;46749;32.932;-117.130;2023-05-01T09:55:16;100668.03;;;16.65;54.97
60897;BME280;46749;32.932;-117.130;2023-05-01T09:57:44;100661.91;;;16.64;54.84
60897;BME280;46749;32.932;-117.130;2023-05-01T10:00:12;100656.66;;;16.64;54.89
60897;BME280;46749;32.932;-117.130;2023-05-01T10:02:40;100664.50;;;16.63;54.83
60897;BME280;46749;32.932;-117.130;2023-05-01T10:05:08;100664.50;;;16.61;54.87
60897;BME280;46749;32.932;-117.130;2023-05-01T10:07:35;100660.13;;;16.62;54.98
60897;BME280;46749;32.932;-117.130;2023-05-01T10:10:21;100663.63;;;16.61;54.94
60897;BME280;46749;32.932;-117.130;2023-05-01T10:12:48;100654.03;;;16.63;54.88
60897;BME280;46749;32.932;-117.130;2023-05-01T10:15:15;100652.25;;;16.62;54.96
60897;BME280;46749;32.932;-117.130;2023-05-01T10:17:42;100643.53;;;16.60;54.82
60897;BME280;46749;32.932;-117.130;2023-05-01T10:20:10;100648.72;;;16.58;54.97
60897;BME280;46749;32.932;-117.130;2023-05-01T10:22:40;100650.47;;;16.58;55.04
60897;BME280;46749;32.932;-117.130;2023-05-01T10:25:08;100651.34;;;16.57;54.90
60897;BME280;46749;32.932;-117.130;2023-05-01T10:27:40;100646.97;;;16.56;54.96
60897;BME280;46749;32.932;-117.130;2023-05-01T10:30:08;100642.59;;;16.55;54.96
60897;BME280;46749;32.932;-117.130;2023-05-01T10:32:36;100646.06;;;16.54;54.97
60897;BME280;46749;32.932;-117.130;2023-05-01T10:35:17;100637.34;;;16.55;54.75
60897;BME280;46749;32.932;-117.130;2023-05-01T10:37:58;100637.34;;;16.55;54.89
60897;BME280;46749;32.932;-117.130;2023-05-01T10:40:50;100640.84;;;16.55;54.80
60897;BME280;46749;32.932;-117.130;2023-05-01T10:43:19;100621.59;;;16.55;54.69
60897;BME280;46749;32.932;-117.130;2023-05-01T10:51:23;100622.44;;;16.51;54.92
60897;BME280;46749;32.932;-117.130;2023-05-01T10:59:03;100632.03;;;16.50;54.74
60897;BME280;46749;32.932;-117.130;2023-05-01T11:01:35;100628.56;;;16.51;54.88
60897;BME280;46749;32.932;-117.130;2023-05-01T11:04:06;100638.16;;;16.52;54.85
60897;BME280;46749;32.932;-117.130;2023-05-01T11:06:34;100633.78;;;16.50;55.08
60897;BME280;46749;32.932;-117.130;2023-05-01T11:09:01;100619.78;;;16.48;55.01
60897;BME280;46749;32.932;-117.130;2023-05-01T11:14:02;100624.13;;;16.45;54.77
60897;BME280;46749;32.932;-117.130;2023-05-01T11:21:46;100628.53;;;16.48;55.02
60897;BME280;46749;32.932;-117.130;2023-05-01T11:24:13;100622.41;;;16.48;54.99
60897;BME280;46749;32.932;-117.130;2023-05-01T11:26:40;100624.13;;;16.45;54.88
60897;BME280;46749;32.932;-117.130;2023-05-01T11:29:08;100619.75;;;16.44;55.06
60897;BME280;46749;32.932;-117.130;2023-05-01T11:31:38;100611.88;;;16.46;54.89
60897;BME280;46749;32.932;-117.130;2023-05-01T11:34:04;100605.75;;;16.45;55.03
60897;BME280;46749;32.932;-117.130;2023-05-01T11:36:47;100616.25;;;16.45;54.92
60897;BME280;46749;32.932;-117.130;2023-05-01T11:39:15;100604.91;;;16.46;55.17
60897;BME280;46749;32.932;-117.130;2023-05-01T11:41:44;100613.63;;;16.45;55.03
60897;BME280;46749;32.932;-117.130;2023-05-01T11:44:11;100618.00;;;16.43;54.85
60897;BME280;46749;32.932;-117.130;2023-05-01T11:46:38;100610.13;;;16.43;54.94
60897;BME280;46749;32.932;-117.130;2023-05-01T11:49:05;100612.69;;;16.40;55.00
60897;BME280;46749;32.932;-117.130;2023-05-01T11:51:31;100616.22;;;16.42;54.91
60897;BME280;46749;32.932;-117.130;2023-05-01T11:56:31;100616.22;;;16.42;54.94
60897;BME280;46749;32.932;-117.130;2023-05-01T11:59:07;100611.84;;;16.41;54.93
60897;BME280;46749;32.932;-117.130;2023-05-01T12:01:34;100614.44;;;16.40;54.97
60897;BME280;46749;32.932;-117.130;2023-05-01T12:04:02;100617.94;;;16.39;55.09
60897;BME280;46749;32.932;-117.130;2023-05-01T12:06:38;100612.69;;;16.37;55.03
60897;BME280;46749;32.932;-117.130;2023-05-01T12:09:25;100604.81;;;16.36;55.04
60897;BME280;46749;32.932;-117.130;2023-05-01T12:11:52;100609.16;;;16.35;55.08
60897;BME280;46749;32.932;-117.130;2023-05-01T12:14:20;100608.28;;;16.35;55.00
60897;BME280;46749;32.932;-117.130;2023-05-01T12:16:49;100611.78;;;16.35;55.08
60897;BME280;46749;32.932;-117.130;2023-05-01T12:19:15;100623.16;;;16.37;54.89
60897;BME280;46749;32.932;-117.130;2023-05-01T12:21:42;100630.16;;;16.38;55.11
60897;BME280;46749;32.932;-117.130;2023-05-01T12:24:13;100624.03;;;16.36;55.02
60897;BME280;46749;32.932;-117.130;2023-05-01T12:26:41;100617.91;;;16.34;55.23
60897;BME280;46749;32.932;-117.130;2023-05-01T12:29:08;100618.75;;;16.33;55.00
60897;BME280;46749;32.932;-117.130;2023-05-01T12:31:35;100619.59;;;16.32;55.24
60897;BME280;46749;32.932;-117.130;2023-05-01T12:34:03;100630.97;;;16.31;54.84
60897;BME280;46749;32.932;-117.130;2023-05-01T12:36:32;100623.97;;;16.30;55.03
60897;BME280;46749;32.932;-117.130;2023-05-01T12:39:12;100628.34;;;16.31;55.18
60897;BME280;46749;32.932;-117.130;2023-05-01T12:44:18;100628.34;;;16.33;55.05
60897;BME280;46749;32.932;-117.130;2023-05-01T12:47:04;100621.34;;;16.33;55.04
60897;BME280;46749;32.932;-117.130;2023-05-01T12:49:32;100620.47;;;16.33;55.06
60897;BME280;46749;32.932;-117.130;2023-05-01T12:52:01;100622.22;;;16.32;55.05
60897;BME280;46749;32.932;-117.130;2023-05-01T12:54:30;100627.47;;;16.31;54.94
60897;BME280;46749;32.932;-117.130;2023-05-01T12:57:07;100617.84;;;16.31;54.96
60897;BME280;46749;32.932;-117.130;2023-05-01T12:59:35;100623.97;;;16.32;54.98
60897;BME280;46749;32.932;-117.130;2023-05-01T13:02:07;100630.97;;;16.31;54.75
60897;BME280;46749;32.932;-117.130;2023-05-01T13:04:35;100623.09;;;16.31;54.83
60897;BME280;46749;32.932;-117.130;2023-05-01T13:07:13;100627.47;;;16.31;55.09
60897;BME280;46749;32.932;-117.130;2023-05-01T13:09:54;100624.81;;;16.29;55.10
60897;BME280;46749;32.932;-117.130;2023-05-01T13:12:23;100630.06;;;16.29;54.81
60897;BME280;46749;32.932;-117.130;2023-05-01T13:14:49;100616.97;;;16.29;54.83